Alexandria Bay, New York
Current Conditions -  °F | °C
As of 3:33 AM on Sunday 23 Nov 2014 (Local Time) from KGTB Reporting Station
Light Rain Light Rain  
Wind Chill: 34°   Ceiling: 600
Heat Index: 41°   Visibility: 8mi
Dew Point: 41°   Wind: 13mph
Humidity: 100%   Direction: 240°WSW
Pressure: 29.96"   Gusts: 18mph
Location:  44.34°N, 75.92°W
Report Text: KGTB 230833Z AUTO 24011G16KT 8SM R03/5500FT -RA OVC006 05/05 A2996 RMK AO2 UPE0758RAB0758E0810B0826DZB0808E0826 CIG 006V008
Loading
Personal Weather Stations






























Interactive Weather Map New forecast layout! Learn more

10-Day Weather Forecast

Advertisements
Track Severe Weather on mobile